Time;durP1;ratioP1;P1;durP2;ratioP2;P2;SDS_P1;SDS_P2;PMS_P1;PMS_P2;Temp;Humidity;BMP_temperature;BMP_pressure;BME280_temperature;BME280_humidity;BME280_pressure;Samples;Min_cycle;Max_cycle;Signal;HPM_P1;HPM_P2
2023/12/07 00:01:45;;;;;;;35.92;20.00;;;;;;;;;;4892010;29;20263;-80
2023/12/07 00:04:11;;;;;;;39.63;21.02;;;;;;;;;;4911991;29;20491;-79
2023/12/07 00:06:37;;;;;;;50.38;23.15;;;;;;;;;;4926278;29;20047;-79
2023/12/07 00:09:04;;;;;;;29.08;17.25;;;;;;;;;;4911564;29;20091;-79
2023/12/07 00:11:30;;;;;;;33.83;17.67;;;;;;;;;;4927801;29;20048;-79
2023/12/07 00:13:56;;;;;;;43.45;23.20;;;;;;;;;;4933814;29;20419;-80
2023/12/07 00:16:22;;;;;;;43.30;24.73;;;;;;;;;;4908576;29;20039;-78
2023/12/07 00:18:48;;;;;;;46.47;20.63;;;;;;;;;;4924462;29;20029;-78
2023/12/07 00:21:14;;;;;;;39.08;19.17;;;;;;;;;;4919261;29;20099;-78
2023/12/07 00:23:40;;;;;;;23.30;15.35;;;;;;;;;;4930755;29;20036;-79
2023/12/07 00:26:06;;;;;;;60.15;28.92;;;;;;;;;;4883724;29;20046;-78
2023/12/07 00:28:32;;;;;;;56.35;32.75;;;;;;;;;;4910920;29;20040;-78
2023/12/07 00:30:59;;;;;;;39.70;23.45;;;;;;;;;;4928726;29;20094;-78
2023/12/07 00:33:25;;;;;;;55.70;28.15;;;;;;;;;;4925767;29;20032;-79
2023/12/07 00:35:51;;;;;;;54.28;26.27;;;;;;;;;;4930802;29;20039;-79
2023/12/07 00:38:17;;;;;;;59.20;33.08;;;;;;;;;;4928780;29;20340;-80
2023/12/07 00:40:43;;;;;;;34.45;20.45;;;;;;;;;;4921029;29;20043;-79
2023/12/07 00:43:09;;;;;;;60.20;29.35;;;;;;;;;;4930510;29;20027;-79
2023/12/07 00:45:35;;;;;;;51.25;28.83;;;;;;;;;;4928522;29;20047;-80
2023/12/07 00:48:01;;;;;;;61.13;29.88;;;;;;;;;;4924343;29;20040;-79
2023/12/07 00:50:27;;;;;;;65.68;35.90;;;;;;;;;;4930083;29;20103;-79
2023/12/07 00:52:53;;;;;;;56.17;32.65;;;;;;;;;;4927879;29;20107;-79
2023/12/07 00:55:19;;;;;;;45.17;26.48;;;;;;;;;;4928640;29;20511;-77
2023/12/07 00:57:45;;;;;;;45.40;25.08;;;;;;;;;;4927676;29;20048;-78
2023/12/07 01:00:12;;;;;;;29.10;18.27;;;;;;;;;;4905991;29;20070;-79
2023/12/07 01:02:37;;;;;;;37.00;21.27;;;;;;;;;;4929247;29;20040;-79
2023/12/07 01:05:04;;;;;;;35.17;19.63;;;;;;;;;;4911683;29;20095;-79
2023/12/07 01:07:30;;;;;;;33.15;17.95;;;;;;;;;;4931541;29;20071;-78
2023/12/07 01:09:56;;;;;;;38.55;20.40;;;;;;;;;;4931905;29;20038;-80
2023/12/07 01:12:22;;;;;;;47.03;25.13;;;;;;;;;;4922650;29;20063;-81
2023/12/07 01:14:49;;;;;;;34.08;19.02;;;;;;;;;;4934283;29;20495;-79
2023/12/07 01:17:15;;;;;;;40.28;21.83;;;;;;;;;;4908448;29;20032;-81
2023/12/07 01:19:41;;;;;;;27.05;15.80;;;;;;;;;;4925776;29;20042;-79
2023/12/07 01:22:07;;;;;;;28.33;16.33;;;;;;;;;;4947252;29;20074;-79
2023/12/07 01:24:33;;;;;;;21.70;13.75;;;;;;;;;;4928700;29;20039;-81
2023/12/07 01:26:59;;;;;;;28.17;14.02;;;;;;;;;;4919770;29;20068;-79
2023/12/07 01:29:26;;;;;;;15.88;10.18;;;;;;;;;;4921967;29;20047;-80
2023/12/07 01:31:52;;;;;;;15.60;9.77;;;;;;;;;;4940315;29;20032;-81
2023/12/07 01:34:18;;;;;;;15.15;9.35;;;;;;;;;;4942297;29;20042;-79
2023/12/07 01:36:45;;;;;;;13.27;9.07;;;;;;;;;;4943443;29;20039;-79
2023/12/07 01:39:12;;;;;;;20.80;10.00;;;;;;;;;;4941094;29;20024;-81
2023/12/07 01:41:39;;;;;;;17.90;11.00;;;;;;;;;;4926223;29;20043;-78
2023/12/07 01:44:05;;;;;;;16.20;9.73;;;;;;;;;;4929905;29;20039;-80
2023/12/07 01:46:32;;;;;;;14.32;9.15;;;;;;;;;;4927873;29;20036;-80
2023/12/07 01:48:58;;;;;;;11.32;8.48;;;;;;;;;;4916687;29;20039;-78
2023/12/07 01:51:24;;;;;;;11.57;9.50;;;;;;;;;;4915083;29;20446;-78
2023/12/07 01:53:50;;;;;;;16.13;11.25;;;;;;;;;;4937119;29;20119;-78
2023/12/07 01:56:16;;;;;;;16.33;7.32;;;;;;;;;;4946247;29;20042;-79
2023/12/07 01:58:42;;;;;;;18.10;13.68;;;;;;;;;;4933266;29;20037;-80
2023/12/07 02:01:11;;;;;;;36.42;17.65;;;;;;;;;;4923105;29;20036;-77
2023/12/07 02:03:38;;;;;;;35.05;18.63;;;;;;;;;;4933620;29;20515;-79
2023/12/07 02:06:04;;;;;;;21.25;11.35;;;;;;;;;;4927709;29;20071;-78
2023/12/07 02:08:30;;;;;;;17.48;13.05;;;;;;;;;;4932077;29;20032;-79
2023/12/07 02:10:56;;;;;;;3.83;3.63;;;;;;;;;;4931941;29;20526;-79
2023/12/07 02:13:23;;;;;;;15.52;9.35;;;;;;;;;;4932315;29;20052;-78
2023/12/07 02:15:50;;;;;;;17.27;10.55;;;;;;;;;;4931733;29;20039;-79
2023/12/07 02:18:26;;;;;;;9.20;6.28;;;;;;;;;;4936597;29;20043;-79
2023/12/07 02:21:00;;;;;;;16.75;10.70;;;;;;;;;;4903439;29;20032;-79
2023/12/07 02:23:26;;;;;;;6.38;4.20;;;;;;;;;;4934143;29;20030;-79
2023/12/07 02:29:03;;;;;;;18.52;13.13;;;;;;;;;;4921973;29;20047;-79
2023/12/07 02:31:29;;;;;;;24.65;12.50;;;;;;;;;;4927174;29;20431;-78
2023/12/07 02:33:55;;;;;;;21.23;11.13;;;;;;;;;;4931476;29;20084;-80
2023/12/07 02:36:22;;;;;;;20.50;13.88;;;;;;;;;;4916837;29;20115;-79
2023/12/07 02:38:49;;;;;;;24.75;12.88;;;;;;;;;;4937388;29;20039;-80
2023/12/07 02:41:15;;;;;;;16.65;8.98;;;;;;;;;;4927442;29;20032;-80
2023/12/07 02:43:41;;;;;;;10.85;9.15;;;;;;;;;;4921239;29;20392;-79
2023/12/07 02:46:07;;;;;;;34.92;9.52;;;;;;;;;;4939376;29;20039;-80
2023/12/07 02:48:33;;;;;;;28.25;16.35;;;;;;;;;;4908233;29;20515;-79
2023/12/07 02:50:59;;;;;;;13.43;9.38;;;;;;;;;;4927757;29;20515;-78
2023/12/07 02:53:25;;;;;;;19.50;12.43;;;;;;;;;;4927172;29;20056;-79
2023/12/07 02:55:51;;;;;;;8.25;5.95;;;;;;;;;;4912158;29;20046;-78
2023/12/07 02:58:17;;;;;;;19.77;12.10;;;;;;;;;;4910469;29;20028;-78
2023/12/07 03:00:43;;;;;;;12.98;9.75;;;;;;;;;;4911477;29;20593;-79
2023/12/07 03:03:09;;;;;;;12.95;7.53;;;;;;;;;;4918836;29;20039;-79
2023/12/07 03:05:35;;;;;;;10.00;6.80;;;;;;;;;;4914563;29;20039;-79
2023/12/07 03:08:01;;;;;;;13.23;9.82;;;;;;;;;;4909372;29;20107;-78
2023/12/07 03:10:27;;;;;;;12.90;8.55;;;;;;;;;;4910193;29;20498;-77
2023/12/07 03:12:54;;;;;;;13.95;9.23;;;;;;;;;;4926317;29;20051;-78
2023/12/07 03:15:20;;;;;;;19.85;12.52;;;;;;;;;;4930829;29;20047;-80
2023/12/07 03:17:46;;;;;;;16.17;10.13;;;;;;;;;;4924231;29;20131;-79
2023/12/07 03:20:12;;;;;;;10.82;7.57;;;;;;;;;;4913881;29;20110;-79
2023/12/07 03:22:39;;;;;;;14.95;9.57;;;;;;;;;;4912457;29;20043;-78
2023/12/07 03:25:05;;;;;;;10.23;8.57;;;;;;;;;;4919917;29;20067;-78
2023/12/07 03:27:31;;;;;;;20.48;12.57;;;;;;;;;;4911056;29;20067;-78
2023/12/07 03:29:57;;;;;;;12.27;8.38;;;;;;;;;;4924684;29;20517;-78
2023/12/07 03:32:23;;;;;;;17.27;10.40;;;;;;;;;;4916787;29;20109;-78
2023/12/07 03:34:49;;;;;;;11.10;7.20;;;;;;;;;;4874714;29;20036;-78
2023/12/07 03:37:15;;;;;;;11.98;9.48;;;;;;;;;;4916507;29;20074;-76
2023/12/07 03:39:41;;;;;;;10.18;8.32;;;;;;;;;;4922581;29;20039;-78
2023/12/07 03:42:07;;;;;;;11.70;9.13;;;;;;;;;;4922960;29;20051;-78
2023/12/07 03:44:34;;;;;;;9.77;7.72;;;;;;;;;;4908017;29;20031;-79
2023/12/07 03:47:00;;;;;;;15.90;8.13;;;;;;;;;;4916087;29;20029;-79
2023/12/07 03:49:27;;;;;;;17.70;10.45;;;;;;;;;;4921617;29;20032;-79
2023/12/07 03:51:53;;;;;;;9.95;6.57;;;;;;;;;;4909907;29;20517;-80
2023/12/07 03:54:19;;;;;;;13.43;8.82;;;;;;;;;;4898492;29;20040;-79
2023/12/07 03:56:44;;;;;;;18.17;8.52;;;;;;;;;;4909681;29;20533;-78
2023/12/07 03:59:11;;;;;;;17.65;10.20;;;;;;;;;;4924378;29;20118;-78
2023/12/07 04:01:37;;;;;;;11.30;8.55;;;;;;;;;;4907510;29;20028;-78
2023/12/07 04:04:04;;;;;;;10.30;8.55;;;;;;;;;;4907124;29;20664;-77
2023/12/07 04:06:30;;;;;;;19.15;9.70;;;;;;;;;;4927061;29;20040;-78
2023/12/07 04:08:56;;;;;;;10.80;9.32;;;;;;;;;;4934156;29;20043;-77
2023/12/07 04:11:22;;;;;;;16.77;11.20;;;;;;;;;;4904444;29;20044;-77
2023/12/07 04:13:48;;;;;;;12.77;8.55;;;;;;;;;;4932336;29;20052;-77
2023/12/07 04:16:14;;;;;;;17.13;11.63;;;;;;;;;;4937554;29;20035;-76
2023/12/07 04:18:41;;;;;;;24.90;14.45;;;;;;;;;;4932949;29;20040;-77
2023/12/07 04:21:06;;;;;;;14.23;10.25;;;;;;;;;;4934273;29;20032;-78
2023/12/07 04:23:32;;;;;;;23.00;13.00;;;;;;;;;;4937581;29;20056;-77
2023/12/07 04:25:59;;;;;;;19.60;11.10;;;;;;;;;;4907796;29;20040;-77
2023/12/07 04:28:24;;;;;;;20.55;11.43;;;;;;;;;;4918718;29;20039;-77
2023/12/07 04:30:50;;;;;;;19.73;11.45;;;;;;;;;;4928057;29;20040;-77
2023/12/07 04:38:40;;;;;;;8.50;7.13;;;;;;;;;;5142741;23;20085;-80
2023/12/07 04:41:06;;;;;;;25.63;13.82;;;;;;;;;;4942611;29;20095;-82
2023/12/07 04:43:33;;;;;;;12.88;9.57;;;;;;;;;;5122719;23;20079;-80
2023/12/07 04:45:59;;;;;;;8.60;7.10;;;;;;;;;;5446631;23;20077;-77
2023/12/07 04:48:25;;;;;;;8.20;7.07;;;;;;;;;;4906420;29;20100;-84
2023/12/07 04:50:52;;;;;;;12.48;11.02;;;;;;;;;;4915373;29;20055;-82
2023/12/07 04:53:18;;;;;;;9.02;7.22;;;;;;;;;;4937760;29;20031;-83
2023/12/07 04:55:48;;;;;;;14.38;8.85;;;;;;;;;;4918758;29;20077;-81
2023/12/07 04:58:15;;;;;;;16.45;12.02;;;;;;;;;;4933592;29;20017;-81
2023/12/07 05:00:42;;;;;;;5.40;5.03;;;;;;;;;;4925947;29;20032;-82
2023/12/07 05:03:09;;;;;;;28.58;15.30;;;;;;;;;;4934014;29;20027;-83
2023/12/07 05:05:34;;;;;;;29.38;14.25;;;;;;;;;;4932793;29;20051;-84
2023/12/07 05:08:04;;;;;;;14.02;9.13;;;;;;;;;;4934423;29;20055;-80
2023/12/07 05:10:30;;;;;;;21.92;10.80;;;;;;;;;;4914590;29;20052;-78
2023/12/07 05:12:56;;;;;;;13.38;8.90;;;;;;;;;;4939043;29;20127;-81
2023/12/07 05:15:22;;;;;;;15.75;10.38;;;;;;;;;;4891479;29;20048;-81
2023/12/07 05:17:49;;;;;;;38.03;18.95;;;;;;;;;;4922757;29;20121;-82
2023/12/07 05:20:15;;;;;;;17.27;10.55;;;;;;;;;;4923419;29;20016;-85
2023/12/07 05:22:41;;;;;;;25.95;14.20;;;;;;;;;;4928403;29;20036;-82
2023/12/07 05:25:07;;;;;;;14.90;10.57;;;;;;;;;;4906729;29;20060;-82
2023/12/07 05:27:33;;;;;;;28.70;13.27;;;;;;;;;;4922443;29;20096;-82
2023/12/07 05:29:59;;;;;;;15.20;10.05;;;;;;;;;;4923185;29;20076;-80
2023/12/07 05:32:25;;;;;;;20.58;12.48;;;;;;;;;;4923046;29;20080;-83
2023/12/07 05:34:51;;;;;;;20.02;12.70;;;;;;;;;;4917833;29;20029;-81
2023/12/07 05:37:17;;;;;;;23.65;14.02;;;;;;;;;;5143273;23;20048;-78
2023/12/07 05:39:43;;;;;;;8.77;6.30;;;;;;;;;;4927396;29;20040;-79
2023/12/07 05:42:09;;;;;;;25.10;10.70;;;;;;;;;;4925977;29;20042;-81
2023/12/07 05:44:35;;;;;;;19.05;11.82;;;;;;;;;;4932421;29;20033;-80
2023/12/07 05:47:01;;;;;;;18.55;12.05;;;;;;;;;;4934497;29;20032;-80
2023/12/07 05:49:27;;;;;;;18.75;10.15;;;;;;;;;;4936938;29;20032;-80
2023/12/07 05:51:53;;;;;;;16.55;11.55;;;;;;;;;;4937407;29;20055;-80
2023/12/07 05:54:22;;;;;;;17.20;12.25;;;;;;;;;;4925503;29;20404;-80
2023/12/07 05:59:24;;;;;;;15.82;9.77;;;;;;;;;;4936668;28;20031;-83
2023/12/07 06:01:51;;;;;;;23.95;12.85;;;;;;;;;;5173769;23;20087;-81
2023/12/07 06:04:17;;;;;;;23.55;10.88;;;;;;;;;;4960463;28;20054;-79
2023/12/07 06:06:43;;;;;;;10.27;9.18;;;;;;;;;;4974337;28;20050;-79
2023/12/07 06:09:19;;;;;;;17.70;9.82;;;;;;;;;;5000126;23;20068;-78
2023/12/07 06:11:45;;;;;;;24.10;14.48;;;;;;;;;;4926774;29;20050;-80
2023/12/07 06:14:11;;;;;;;18.88;13.70;;;;;;;;;;4928128;29;20106;-81
2023/12/07 06:16:37;;;;;;;26.80;15.75;;;;;;;;;;4929151;29;20036;-81
2023/12/07 06:19:03;;;;;;;38.58;18.30;;;;;;;;;;4955793;28;20063;-81
2023/12/07 06:21:30;;;;;;;35.22;18.70;;;;;;;;;;4948801;29;20136;-80
2023/12/07 06:23:58;;;;;;;40.55;19.52;;;;;;;;;;4934896;29;20406;-84
2023/12/07 06:26:24;;;;;;;35.13;19.73;;;;;;;;;;4969309;28;20039;-81
2023/12/07 06:28:51;;;;;;;36.63;19.95;;;;;;;;;;5059365;23;20066;-83
2023/12/07 06:31:21;;;;;;;38.65;19.90;;;;;;;;;;4929349;29;20028;-80
2023/12/07 06:33:47;;;;;;;36.60;17.00;;;;;;;;;;4949380;29;20063;-82
2023/12/07 06:36:20;;;;;;;39.08;19.23;;;;;;;;;;4949434;28;20027;-84
2023/12/07 06:38:46;;;;;;;34.50;17.55;;;;;;;;;;5007483;23;20061;-79
2023/12/07 06:41:13;;;;;;;36.95;18.73;;;;;;;;;;4950408;29;20527;-80
2023/12/07 06:43:39;;;;;;;34.70;18.40;;;;;;;;;;4946948;29;20036;-78
2023/12/07 06:46:05;;;;;;;37.33;19.27;;;;;;;;;;4937469;29;20466;-83
2023/12/07 06:48:31;;;;;;;30.50;15.77;;;;;;;;;;4952577;29;20027;-82
2023/12/07 06:50:57;;;;;;;33.35;16.08;;;;;;;;;;5325118;23;21366;-80
2023/12/07 06:53:24;;;;;;;33.45;17.95;;;;;;;;;;5250728;23;20128;-72
2023/12/07 06:58:38;;;;;;;25.38;16.38;;;;;;;;;;5062656;23;20059;-83
2023/12/07 07:01:04;;;;;;;35.38;17.42;;;;;;;;;;4968215;29;20032;-79
2023/12/07 07:03:30;;;;;;;30.92;16.15;;;;;;;;;;4957928;29;20039;-80
2023/12/07 07:05:56;;;;;;;34.42;17.60;;;;;;;;;;4956719;29;20484;-80
2023/12/07 07:08:22;;;;;;;25.95;11.45;;;;;;;;;;4929060;29;20039;-79
2023/12/07 07:10:48;;;;;;;21.23;11.27;;;;;;;;;;4943429;29;20146;-79
2023/12/07 07:13:16;;;;;;;10.98;8.50;;;;;;;;;;4930729;29;20039;-79
2023/12/07 07:15:43;;;;;;;10.10;8.40;;;;;;;;;;4933291;29;20019;-81
2023/12/07 07:18:09;;;;;;;29.77;16.77;;;;;;;;;;4966823;29;20043;-80
2023/12/07 07:20:36;;;;;;;26.63;15.38;;;;;;;;;;4966874;29;20024;-81
2023/12/07 07:23:02;;;;;;;21.35;9.70;;;;;;;;;;4949932;29;20051;-80
2023/12/07 07:25:28;;;;;;;11.00;8.00;;;;;;;;;;4948153;29;20046;-82
2023/12/07 07:27:54;;;;;;;8.02;7.25;;;;;;;;;;4947240;29;20569;-81
2023/12/07 07:30:20;;;;;;;21.42;13.63;;;;;;;;;;4945568;29;20036;-81
2023/12/07 07:32:47;;;;;;;13.48;9.85;;;;;;;;;;4929888;29;20095;-80
2023/12/07 07:35:13;;;;;;;16.63;11.00;;;;;;;;;;4930188;29;20038;-81
2023/12/07 07:37:41;;;;;;;31.85;16.38;;;;;;;;;;4954074;29;20454;-78
2023/12/07 07:40:08;;;;;;;10.25;7.78;;;;;;;;;;4943990;29;20118;-80
2023/12/07 07:42:34;;;;;;;30.88;18.33;;;;;;;;;;4942740;29;20546;-80
2023/12/07 07:45:00;;;;;;;20.17;10.38;;;;;;;;;;4944622;29;20031;-80
2023/12/07 07:47:26;;;;;;;19.77;13.38;;;;;;;;;;4945545;29;20035;-80
2023/12/07 07:49:52;;;;;;;15.45;10.52;;;;;;;;;;4925533;29;20103;-80
2023/12/07 07:52:19;;;;;;;25.52;15.82;;;;;;;;;;4940984;29;20050;-80
2023/12/07 07:54:45;;;;;;;22.40;12.52;;;;;;;;;;4941683;29;20087;-82
2023/12/07 07:57:11;;;;;;;10.07;7.40;;;;;;;;;;4928827;29;20055;-81
2023/12/07 07:59:37;;;;;;;22.17;13.38;;;;;;;;;;4945831;29;20068;-80
2023/12/07 08:02:03;;;;;;;24.08;15.00;;;;;;;;;;4915231;29;20044;-80
2023/12/07 08:04:29;;;;;;;32.92;20.45;;;;;;;;;;4948243;29;20040;-80
2023/12/07 08:06:55;;;;;;;34.70;18.13;;;;;;;;;;4926345;29;20506;-80
2023/12/07 08:09:21;;;;;;;14.18;9.07;;;;;;;;;;4945743;29;20024;-81
2023/12/07 08:11:47;;;;;;;23.30;12.90;;;;;;;;;;4947961;29;20047;-81
2023/12/07 08:14:13;;;;;;;24.23;12.25;;;;;;;;;;4930926;29;20027;-79
2023/12/07 08:16:42;;;;;;;13.15;9.80;;;;;;;;;;4943157;29;20032;-79
2023/12/07 08:19:09;;;;;;;33.20;16.15;;;;;;;;;;4913893;29;20418;-80
2023/12/07 08:21:35;;;;;;;7.63;6.85;;;;;;;;;;4930672;29;20040;-80
2023/12/07 08:24:01;;;;;;;6.85;5.97;;;;;;;;;;4930163;29;20043;-79
2023/12/07 08:26:27;;;;;;;12.65;9.10;;;;;;;;;;4942402;29;20036;-80
2023/12/07 08:28:53;;;;;;;13.85;10.60;;;;;;;;;;4924006;29;20078;-79
2023/12/07 08:31:20;;;;;;;7.25;6.03;;;;;;;;;;4906297;29;20046;-78
2023/12/07 08:33:46;;;;;;;18.88;11.80;;;;;;;;;;4925626;29;20414;-80
2023/12/07 08:36:13;;;;;;;15.13;10.90;;;;;;;;;;4927317;29;20510;-81
2023/12/07 08:38:39;;;;;;;5.85;5.35;;;;;;;;;;4910658;29;20024;-80
2023/12/07 08:41:05;;;;;;;6.25;5.72;;;;;;;;;;4925594;29;20173;-80
2023/12/07 08:43:31;;;;;;;7.13;6.30;;;;;;;;;;4926288;29;20043;-80
2023/12/07 08:45:57;;;;;;;16.95;10.80;;;;;;;;;;4948151;29;20032;-81
2023/12/07 08:48:23;;;;;;;8.40;6.65;;;;;;;;;;4916879;29;20625;-80
2023/12/07 08:50:49;;;;;;;11.05;8.75;;;;;;;;;;4948188;29;20039;-78
2023/12/07 08:53:15;;;;;;;7.95;7.13;;;;;;;;;;4946148;29;20035;-81
2023/12/07 08:55:41;;;;;;;7.40;6.65;;;;;;;;;;4948125;29;20048;-79
2023/12/07 08:58:08;;;;;;;9.73;8.05;;;;;;;;;;4942004;29;20131;-80
2023/12/07 09:00:33;;;;;;;9.02;7.72;;;;;;;;;;4941599;29;20036;-81
2023/12/07 09:02:59;;;;;;;17.05;11.38;;;;;;;;;;4949804;29;20038;-80
2023/12/07 09:05:26;;;;;;;15.43;10.15;;;;;;;;;;4947738;29;20067;-79
2023/12/07 09:07:52;;;;;;;9.32;8.32;;;;;;;;;;4927858;29;20039;-81
2023/12/07 09:10:18;;;;;;;12.07;9.10;;;;;;;;;;4944952;29;20090;-81
2023/12/07 09:12:44;;;;;;;14.65;7.85;;;;;;;;;;4895412;29;20044;-80
2023/12/07 09:15:10;;;;;;;15.30;10.18;;;;;;;;;;4946048;29;20036;-81
2023/12/07 09:17:37;;;;;;;10.75;6.72;;;;;;;;;;4948714;29;20079;-80
2023/12/07 09:20:04;;;;;;;9.30;7.03;;;;;;;;;;4949202;29;20035;-81
2023/12/07 09:22:30;;;;;;;11.32;8.90;;;;;;;;;;4947380;29;20474;-81
2023/12/07 09:24:57;;;;;;;6.35;5.50;;;;;;;;;;4944384;29;20045;-81
2023/12/07 09:27:23;;;;;;;17.42;11.27;;;;;;;;;;4948007;29;20047;-80
2023/12/07 09:29:48;;;;;;;25.38;15.38;;;;;;;;;;4918812;29;20039;-80
2023/12/07 09:32:15;;;;;;;13.30;10.38;;;;;;;;;;4932793;29;20423;-79
2023/12/07 09:34:41;;;;;;;5.55;5.07;;;;;;;;;;4913620;29;20182;-80
2023/12/07 09:37:07;;;;;;;9.48;8.32;;;;;;;;;;4931213;29;20048;-80
2023/12/07 09:39:33;;;;;;;11.60;10.23;;;;;;;;;;4948751;29;20039;-80
2023/12/07 09:41:59;;;;;;;5.32;4.93;;;;;;;;;;4946672;29;20039;-79
2023/12/07 09:44:25;;;;;;;4.95;4.57;;;;;;;;;;4945880;29;20043;-82
2023/12/07 09:46:51;;;;;;;4.38;4.03;;;;;;;;;;4912138;29;20510;-80
2023/12/07 09:49:17;;;;;;;6.60;4.95;;;;;;;;;;4946529;29;20040;-80
2023/12/07 09:51:43;;;;;;;13.65;6.05;;;;;;;;;;4928871;29;20071;-80
2023/12/07 09:54:09;;;;;;;6.25;5.68;;;;;;;;;;4947066;29;20032;-81
2023/12/07 09:56:35;;;;;;;4.78;4.28;;;;;;;;;;4949664;29;20055;-81
2023/12/07 09:59:01;;;;;;;12.13;9.00;;;;;;;;;;4948203;29;20036;-80
2023/12/07 10:01:28;;;;;;;6.07;5.47;;;;;;;;;;4916933;29;20047;-80
2023/12/07 10:04:13;;;;;;;8.30;7.47;;;;;;;;;;4944820;29;20586;-81
2023/12/07 10:06:43;;;;;;;8.90;7.25;;;;;;;;;;4899269;29;20044;-81
2023/12/07 10:09:11;;;;;;;9.57;6.60;;;;;;;;;;4898127;29;20522;-81
2023/12/07 10:11:37;;;;;;;23.48;14.82;;;;;;;;;;4914632;29;20055;-81
2023/12/07 10:14:04;;;;;;;4.95;3.83;;;;;;;;;;4915099;29;20040;-80
2023/12/07 10:16:34;;;;;;;10.60;6.95;;;;;;;;;;4913550;29;20123;-80
2023/12/07 10:19:21;;;;;;;12.67;8.57;;;;;;;;;;4914602;29;20040;-78
2023/12/07 10:21:51;;;;;;;12.25;8.18;;;;;;;;;;4930969;29;20120;-80
2023/12/07 10:24:20;;;;;;;11.35;7.93;;;;;;;;;;4931095;29;20040;-81
2023/12/07 10:26:47;;;;;;;8.50;7.70;;;;;;;;;;4935741;29;20408;-81
2023/12/07 10:29:13;;;;;;;14.80;8.95;;;;;;;;;;4916339;29;20499;-80
2023/12/07 10:31:39;;;;;;;8.73;7.00;;;;;;;;;;4895550;29;20048;-80
2023/12/07 10:34:05;;;;;;;13.18;9.80;;;;;;;;;;4931129;29;20048;-79
2023/12/07 10:36:32;;;;;;;8.98;5.63;;;;;;;;;;4898789;29;20107;-81
2023/12/07 10:38:58;;;;;;;7.45;6.78;;;;;;;;;;4928355;29;20067;-80
2023/12/07 10:41:25;;;;;;;14.63;9.05;;;;;;;;;;4896654;29;20036;-82
2023/12/07 10:44:01;;;;;;;11.45;7.45;;;;;;;;;;4911924;29;20039;-81
2023/12/07 10:46:27;;;;;;;14.63;11.88;;;;;;;;;;4928635;29;20119;-81
2023/12/07 10:49:01;;;;;;;13.93;8.13;;;;;;;;;;4912735;29;20035;-81
2023/12/07 10:51:28;;;;;;;12.05;9.75;;;;;;;;;;4912682;29;20103;-81
2023/12/07 10:53:54;;;;;;;10.57;7.50;;;;;;;;;;4927379;29;20036;-81
2023/12/07 10:56:23;;;;;;;14.70;11.20;;;;;;;;;;4925239;29;20079;-81
2023/12/07 10:58:49;;;;;;;6.95;6.20;;;;;;;;;;4907932;29;20099;-80
2023/12/07 11:01:15;;;;;;;15.95;10.95;;;;;;;;;;4930614;29;20028;-81
2023/12/07 11:03:42;;;;;;;14.48;8.93;;;;;;;;;;4903785;29;20095;-79
2023/12/07 11:06:08;;;;;;;10.10;8.07;;;;;;;;;;4947226;29;20078;-80
2023/12/07 11:08:43;;;;;;;13.55;9.32;;;;;;;;;;4928450;29;20051;-80
2023/12/07 11:11:22;;;;;;;10.27;7.60;;;;;;;;;;4929330;29;20047;-80
2023/12/07 11:13:52;;;;;;;19.95;12.93;;;;;;;;;;4945970;29;20040;-80
2023/12/07 11:16:28;;;;;;;22.42;13.52;;;;;;;;;;4929228;29;20053;-80
2023/12/07 11:18:54;;;;;;;16.00;11.15;;;;;;;;;;4945456;29;20162;-81
2023/12/07 11:21:20;;;;;;;20.48;13.15;;;;;;;;;;4930536;29;20076;-81
2023/12/07 11:23:46;;;;;;;16.45;11.38;;;;;;;;;;4926892;29;20035;-81
2023/12/07 11:26:12;;;;;;;5.47;4.82;;;;;;;;;;4943871;29;20028;-82
2023/12/07 11:28:39;;;;;;;6.55;5.28;;;;;;;;;;4943199;29;20095;-80
2023/12/07 11:31:08;;;;;;;5.30;4.80;;;;;;;;;;4925640;29;20035;-82
2023/12/07 11:33:37;;;;;;;6.72;6.10;;;;;;;;;;4926443;29;20564;-81
2023/12/07 11:36:03;;;;;;;5.15;4.75;;;;;;;;;;4926165;29;20070;-80
2023/12/07 11:38:30;;;;;;;22.30;13.25;;;;;;;;;;4912012;29;20507;-80
2023/12/07 11:40:56;;;;;;;12.38;7.28;;;;;;;;;;4950803;29;20031;-80
2023/12/07 11:43:40;;;;;;;9.00;5.78;;;;;;;;;;4955992;29;20031;-80
2023/12/07 11:46:10;;;;;;;14.77;9.70;;;;;;;;;;4925469;29;20028;-81
2023/12/07 11:48:36;;;;;;;15.88;10.75;;;;;;;;;;4919749;29;20127;-83
2023/12/07 11:51:05;;;;;;;8.27;7.47;;;;;;;;;;4924493;29;20170;-82
2023/12/07 11:53:32;;;;;;;4.80;4.40;;;;;;;;;;4924659;29;20053;-85
2023/12/07 11:55:59;;;;;;;15.18;11.00;;;;;;;;;;4942705;29;20043;-81
2023/12/07 11:58:29;;;;;;;17.05;9.20;;;;;;;;;;4939266;29;20067;-81
2023/12/07 12:00:56;;;;;;;18.15;12.07;;;;;;;;;;4923875;29;20058;-81
2023/12/07 12:03:26;;;;;;;11.38;6.65;;;;;;;;;;4923351;29;20039;-82
2023/12/07 12:05:54;;;;;;;32.33;18.60;;;;;;;;;;4922206;29;20060;-82
2023/12/07 12:08:20;;;;;;;19.77;11.43;;;;;;;;;;4932358;29;20096;-82
2023/12/07 12:10:47;;;;;;;34.35;20.73;;;;;;;;;;4926913;29;20024;-82
2023/12/07 12:13:12;;;;;;;18.55;11.20;;;;;;;;;;4931936;29;20032;-80
2023/12/07 12:15:39;;;;;;;21.02;6.55;;;;;;;;;;4943356;29;20087;-80
2023/12/07 12:18:06;;;;;;;21.98;14.02;;;;;;;;;;4953297;29;20413;-80
2023/12/07 12:20:32;;;;;;;24.58;14.30;;;;;;;;;;4948272;29;20044;-81
2023/12/07 12:22:58;;;;;;;13.05;9.63;;;;;;;;;;4917008;29;20032;-81
2023/12/07 12:25:31;;;;;;;20.80;13.00;;;;;;;;;;4951523;29;20093;-80
2023/12/07 12:28:03;;;;;;;25.63;14.07;;;;;;;;;;4956174;29;20012;-82
2023/12/07 12:30:29;;;;;;;24.40;13.90;;;;;;;;;;5133471;23;20071;-78
2023/12/07 12:32:55;;;;;;;33.72;20.25;;;;;;;;;;4933293;29;20055;-80
2023/12/07 12:35:22;;;;;;;22.27;13.30;;;;;;;;;;4968887;29;20028;-78
2023/12/07 12:37:48;;;;;;;42.92;24.00;;;;;;;;;;4965004;28;20056;-83
2023/12/07 12:40:20;;;;;;;31.88;17.65;;;;;;;;;;5252247;23;20051;-82
2023/12/07 12:42:47;;;;;;;23.23;13.00;;;;;;;;;;4962154;29;20023;-82
2023/12/07 12:45:14;;;;;;;13.95;9.25;;;;;;;;;;4959868;28;20052;-79
2023/12/07 12:47:40;;;;;;;11.40;8.40;;;;;;;;;;4941887;29;20032;-82
2023/12/07 12:50:06;;;;;;;16.83;9.80;;;;;;;;;;4939660;29;20028;-81
2023/12/07 12:58:24;;;;;;;17.83;10.77;;;;;;;;;;5902538;23;20266;-78
2023/12/07 13:00:50;;;;;;;24.58;14.05;;;;;;;;;;4924236;29;20470;-80
2023/12/07 13:03:16;;;;;;;18.52;12.45;;;;;;;;;;4890880;29;20043;-78
2023/12/07 13:05:43;;;;;;;22.23;14.65;;;;;;;;;;4920522;29;20051;-78
2023/12/07 13:08:09;;;;;;;31.45;19.52;;;;;;;;;;4943745;29;20043;-77
2023/12/07 13:10:35;;;;;;;34.47;15.57;;;;;;;;;;4920758;29;20052;-78
2023/12/07 13:13:03;;;;;;;33.08;17.38;;;;;;;;;;4921191;29;20041;-75
2023/12/07 13:15:29;;;;;;;26.08;16.05;;;;;;;;;;4938663;29;20036;-76
2023/12/07 13:17:55;;;;;;;16.98;11.90;;;;;;;;;;4905961;29;20095;-77
2023/12/07 13:20:22;;;;;;;18.30;9.90;;;;;;;;;;4938312;29;20039;-78
2023/12/07 13:22:48;;;;;;;24.48;13.93;;;;;;;;;;4924953;29;20566;-78
2023/12/07 13:25:14;;;;;;;13.52;10.48;;;;;;;;;;4901640;29;20107;-77
2023/12/07 13:27:43;;;;;;;17.30;12.70;;;;;;;;;;4904485;29;20032;-76
2023/12/07 13:30:09;;;;;;;13.35;8.38;;;;;;;;;;4901636;29;20052;-77
2023/12/07 13:32:39;;;;;;;8.75;6.80;;;;;;;;;;4902399;29;20372;-77
2023/12/07 13:35:05;;;;;;;12.75;7.95;;;;;;;;;;4887207;29;20035;-77
2023/12/07 13:37:32;;;;;;;27.33;15.77;;;;;;;;;;4903501;29;20051;-78
2023/12/07 13:40:16;;;;;;;22.30;14.05;;;;;;;;;;4918611;29;20411;-78
2023/12/07 13:42:43;;;;;;;24.70;16.13;;;;;;;;;;4918046;29;20036;-77
2023/12/07 13:45:09;;;;;;;24.08;14.65;;;;;;;;;;4901441;29;20040;-77
2023/12/07 13:47:36;;;;;;;13.90;9.65;;;;;;;;;;4901487;29;20099;-77
2023/12/07 13:50:04;;;;;;;13.65;7.82;;;;;;;;;;4885272;29;20081;-78
2023/12/07 13:52:31;;;;;;;6.93;6.25;;;;;;;;;;4869974;29;20496;-77
2023/12/07 13:54:59;;;;;;;11.07;8.13;;;;;;;;;;4900106;29;20035;-77
2023/12/07 13:57:26;;;;;;;11.88;7.40;;;;;;;;;;4900793;29;20456;-78
2023/12/07 13:59:53;;;;;;;18.90;13.30;;;;;;;;;;4885065;29;20523;-78
2023/12/07 14:02:19;;;;;;;14.23;9.10;;;;;;;;;;4917663;29;20051;-78
2023/12/07 14:04:45;;;;;;;13.35;9.25;;;;;;;;;;4918906;29;20036;-77
2023/12/07 14:07:12;;;;;;;11.60;7.32;;;;;;;;;;4920330;29;20047;-77
2023/12/07 14:09:43;;;;;;;15.93;9.95;;;;;;;;;;4889054;29;20115;-78
2023/12/07 14:12:10;;;;;;;6.50;5.97;;;;;;;;;;4931035;29;20036;-77
2023/12/07 14:14:36;;;;;;;8.13;7.20;;;;;;;;;;4908792;29;20036;-79
2023/12/07 14:17:03;;;;;;;3.97;3.60;;;;;;;;;;4887805;29;20044;-77
2023/12/07 14:19:29;;;;;;;15.70;12.63;;;;;;;;;;4903280;29;20036;-77
2023/12/07 14:21:56;;;;;;;6.60;5.90;;;;;;;;;;4919477;29;20556;-75
2023/12/07 14:24:40;;;;;;;5.72;5.15;;;;;;;;;;4920280;29;20059;-79
2023/12/07 14:27:06;;;;;;;6.75;5.93;;;;;;;;;;4920495;29;20066;-78
2023/12/07 14:29:33;;;;;;;8.07;7.20;;;;;;;;;;4923736;29;20038;-78
2023/12/07 14:31:59;;;;;;;6.25;5.65;;;;;;;;;;4922202;29;20059;-78
2023/12/07 14:34:28;;;;;;;13.00;7.63;;;;;;;;;;4921833;29;20123;-77
2023/12/07 14:36:54;;;;;;;5.32;4.93;;;;;;;;;;4905665;29;20044;-77
2023/12/07 14:39:21;;;;;;;7.40;6.68;;;;;;;;;;4906707;29;20036;-76
2023/12/07 14:41:49;;;;;;;17.58;10.27;;;;;;;;;;4890493;29;20044;-78
2023/12/07 14:44:15;;;;;;;10.57;8.32;;;;;;;;;;4907027;29;20028;-78